06 | 06 | 2020

Daten Vortag

Klimadaten von 10m Höhe gemessen, Station 

Datum / Zeit Intervall min Luftfeuchte % Temperatur °C absolut Luftdruck hPa Wind m/s Windbö m/s Richtung Relative Luftdruck hPa Taupunkt °C Windchill °C Niederschlag mm
05-06-2020 00:20 5 97 13.7 990.5 0.0 0.0 N 991.1 13.2 13.7 0.0
05-06-2020 00:25 5 97 13.7 990.7 0.0 2.5 NW 991.3 13.2 13.7 0.0
05-06-2020 00:30 5 97 13.7 990.6 2.5 5.0 S 991.2 13.2 13.7 0.0
05-06-2020 00:35 5 97 13.8 990.7 5.0 6.1 W 991.3 13.3 13.8 0.0
05-06-2020 00:40 5 97 13.8 990.6 5.0 8.6 NW 991.2 13.3 13.8 0.0
05-06-2020 00:45 5 97 13.8 990.5 2.5 5.0 NNW 991.1 13.3 13.8 0.0
05-06-2020 00:50 5 97 13.8 990.2 5.0 7.2 SW 990.8 13.3 13.8 0.0
05-06-2020 00:55 5 97 13.7 990.2 3.6 6.1 W 990.8 13.2 13.7 0.0
05-06-2020 01:00 5 97 13.6 990.3 5.0 8.6 NW 990.9 13.1 13.6 0.0
05-06-2020 01:05 5 97 13.6 990.3 3.6 6.1 W 990.9 13.1 13.6 0.0
05-06-2020 01:10 5 97 13.6 990.4 6.1 8.6 W 991.0 13.1 13.6 0.0
05-06-2020 01:15 5 97 13.5 990.4 5.0 8.6 NW 991.0 13.0 13.5 0.0
05-06-2020 01:20 5 97 13.5 990.4 2.5 7.2 W 991.0 13.0 13.5 0.0
05-06-2020 01:25 5 96 13.5 990.4 3.6 8.6 SWW 991.0 12.9 13.5 0.0
05-06-2020 01:30 5 96 13.4 990.5 5.0 7.2 W 991.1 12.8 13.4 0.0
05-06-2020 01:35 5 96 13.4 990.3 3.6 7.2 NW 990.9 12.8 13.4 0.0
05-06-2020 01:40 5 95 13.4 990.4 5.0 8.6 NW 991.0 12.6 13.4 0.0
05-06-2020 01:45 5 95 13.4 990.5 7.2 11.2 W 991.1 12.6 12.4 0.0
05-06-2020 01:50 5 95 13.3 990.6 5.0 8.6 N 991.2 12.5 13.3 0.0
05-06-2020 01:55 5 95 13.3 990.6 3.6 5.0 NW 991.2 12.5 13.3 0.0
05-06-2020 02:00 5 94 13.3 990.7 3.6 7.2 SE 991.3 12.4 13.3 0.0
05-06-2020 02:05 5 94 13.3 990.6 3.6 7.2 SE 991.2 12.4 13.3 0.0
05-06-2020 02:10 5 94 13.1 990.6 3.6 6.1 W 991.2 12.2 13.1 0.0
05-06-2020 02:15 5 94 13.0 990.7 5.0 6.1 NW 991.3 12.1 13.0 0.0
05-06-2020 02:20 5 93 12.9 990.6 3.6 7.2 W 991.2 11.8 12.9 0.0
05-06-2020 02:25 5 93 12.8 990.6 3.6 6.1 SW 991.2 11.7 12.8 0.0
05-06-2020 02:30 5 92 12.8 990.7 2.5 3.6 SW 991.3 11.5 12.8 0.0
05-06-2020 02:35 5 92 12.7 990.6 5.0 7.2 W 991.2 11.4 12.7 0.0
05-06-2020 02:40 5 91 12.7 990.6 3.6 7.2 S 991.2 11.3 12.7 0.0
05-06-2020 02:45 5 91 12.6 990.5 8.6 13.3 NE 991.1 11.2 10.8 0.0
05-06-2020 02:50 5 90 12.6 990.5 3.6 6.1 SWW 991.1 11.0 12.6 0.0
05-06-2020 02:55 5 90 12.5 990.5 5.0 7.2 SW 991.1 10.9 12.5 0.0
05-06-2020 03:00 5 90 12.5 990.5 5.0 9.7 W 991.1 10.9 12.5 0.0
05-06-2020 03:05 5 92 12.4 990.5 5.0 7.2 NE 991.1 11.2 12.4 0.0
05-06-2020 03:10 5 92 12.3 990.5 6.1 9.7 W 991.1 11.1 12.3 0.0
05-06-2020 03:15 5 91 12.3 990.4 7.2 9.7 NW 991.0 10.9 11.3 0.0
05-06-2020 03:20 5 91 12.2 990.4 5.0 8.6 NW 991.0 10.8 12.2 0.0
05-06-2020 03:25 5 91 12.2 990.6 7.2 12.2 NW 991.2 10.8 11.2 0.0
05-06-2020 03:30 5 91 12.2 990.5 6.1 8.6 W 991.1 10.8 12.2 0.0
05-06-2020 03:35 5 91 12.1 990.5 5.0 8.6 W 991.1 10.7 12.1 0.0
05-06-2020 03:40 5 91 12.1 990.6 5.0 7.2 SW 991.2 10.7 12.1 0.0
05-06-2020 03:45 5 91 12.1 990.6 3.6 6.1 W 991.2 10.7 12.1 0.0
05-06-2020 03:50 5 91 12.1 990.5 3.6 5.0 NW 991.1 10.7 12.1 0.0
05-06-2020 03:55 5 92 12.0 990.4 2.5 6.1 W 991.0 10.8 12.0 0.0
05-06-2020 04:00 5 92 12.0 990.4 6.1 7.2 SE 991.0 10.8 12.0 0.0
05-06-2020 04:05 5 92 12.0 990.3 6.1 7.2 SE 990.9 10.8 12.0 0.0
05-06-2020 04:10 5 91 11.9 990.4 5.0 7.2 W 991.0 10.5 11.9 0.0
05-06-2020 04:15 5 91 11.8 990.3 3.6 6.1 NW 990.9 10.4 11.8 0.0
05-06-2020 04:20 5 91 11.7 990.2 3.6 6.1 W 990.8 10.3 11.7 0.0
05-06-2020 04:25 5 91 11.6 990.4 2.5 5.0 SW 991.0 10.2 11.6 0.0
05-06-2020 04:30 5 91 11.5 990.3 2.5 5.0 W 990.9 10.1 11.5 0.0
05-06-2020 04:35 5 91 11.5 990.3 2.5 5.0 SW 990.9 10.1 11.5 0.0
05-06-2020 04:40 5 91 11.6 990.3 1.1 3.6 SE 990.9 10.2 11.6 0.0
05-06-2020 04:45 5 91 11.5 990.5 0.0 1.1 E 991.1 10.1 11.5 0.0
05-06-2020 04:50 5 92 11.5 990.3 3.6 6.1 N 990.9 10.3 11.5 0.0
05-06-2020 04:55 5 92 11.5 990.4 1.1 3.6 W 991.0 10.3 11.5 0.0
05-06-2020 05:00 5 92 11.5 990.6 1.1 3.6 NE 991.2 10.3 11.5 0.0
05-06-2020 05:05 5 92 11.6 990.6 0.0 2.5 E 991.2 10.4 11.6 0.0
05-06-2020 05:10 5 92 11.6 990.8 2.5 5.0 SW 991.4 10.4 11.6 0.0
05-06-2020 05:15 5 92 11.6 990.7 2.5 3.6 N 991.3 10.4 11.6 0.0
05-06-2020 05:20 5 92 11.6 990.6 1.1 3.6 NW 991.2 10.4 11.6 0.0
05-06-2020 05:25 5 92 11.6 990.7 3.6 7.2 W 991.3 10.4 11.6 0.0
05-06-2020 05:30 5 92 11.7 990.6 3.6 7.2 NW 991.2 10.5 11.7 0.0
05-06-2020 05:35 5 92 11.7 990.7 3.6 5.0 NW 991.3 10.5 11.7 0.0
05-06-2020 05:40 5 92 11.7 990.8 5.0 7.2 NE 991.4 10.5 11.7 0.0
05-06-2020 05:45 5 91 11.7 991.0 1.1 2.5 W 991.6 10.3 11.7 0.0
05-06-2020 05:50 5 91 11.7 991.0 2.5 6.1 NW 991.6 10.3 11.7 0.0
05-06-2020 05:55 5 91 11.8 991.1 3.6 6.1 NW 991.7 10.4 11.8 0.0
05-06-2020 06:00 5 91 11.8 991.2 5.0 7.2 W 991.8 10.4 11.8 0.0
05-06-2020 06:05 5 91 11.8 991.1 5.0 7.2 W 991.7 10.4 11.8 0.0
05-06-2020 06:10 5 90 11.9 990.9 3.6 6.1 NW 991.5 10.3 11.9 0.0
05-06-2020 06:15 5 90 11.8 991.0 3.6 6.1 SE 991.6 10.2 11.8 0.0
05-06-2020 06:20 5 90 11.8 991.0 8.6 13.3 S 991.6 10.2 10.0 0.0
05-06-2020 06:25 5 89 11.8 991.1 5.0 8.6 SW 991.7 10.1 11.8 0.0
05-06-2020 06:30 5 89 11.9 991.2 6.1 9.7 W 991.8 10.2 11.9 0.0
05-06-2020 06:35 5 89 12.0 991.2 8.6 12.2 SW 991.8 10.3 10.2 0.0
05-06-2020 06:40 5 87 12.1 991.2 6.1 7.2 N 991.8 10.0 12.1 0.0
05-06-2020 06:45 5 87 12.2 991.3 5.0 7.2 SE 991.9 10.1 12.2 0.0
05-06-2020 06:50 5 85 12.1 991.3 5.0 8.6 W 991.9 9.7 12.1 0.0
05-06-2020 06:55 5 84 12.1 991.2 7.2 11.2 W 991.8 9.5 11.1 0.0
05-06-2020 07:00 5 84 12.1 991.5 8.6 14.8 W 992.1 9.5 10.3 0.0
05-06-2020 07:05 5 84 12.1 991.4 3.6 6.1 SE 992.0 9.5 12.1 0.0
05-06-2020 07:10 5 83 12.0 991.6 5.0 8.6 NW 992.2 9.2 12.0 0.0
05-06-2020 07:15 5 82 12.0 991.6 6.1 8.6 NE 992.2 9.0 12.0 0.0
05-06-2020 07:20 5 83 12.0 991.6 2.5 5.0 E 992.2 9.2 12.0 0.0
05-06-2020 07:25 5 82 12.0 991.5 2.5 3.6 NW 992.1 9.0 12.0 0.0
05-06-2020 07:30 5 82 12.2 991.8 3.6 5.0 N 992.4 9.2 12.2 0.0
05-06-2020 07:35 5 81 12.4 991.8 2.5 3.6 NW 992.4 9.2 12.4 0.0
05-06-2020 07:40 5 77 12.5 991.9 5.0 7.2 S 992.5 8.6 12.5 0.0
05-06-2020 07:45 5 76 12.5 991.7 6.1 9.7 N 992.3 8.4 12.5 0.0
05-06-2020 07:50 5 78 12.4 992.1 6.1 9.7 W 992.7 8.7 12.4 0.0
05-06-2020 07:55 5 78 12.4 992.0 5.0 8.6 S 992.6 8.7 12.4 0.0
05-06-2020 08:00 5 78 12.3 992.2 2.5 3.6 SW 992.8 8.6 12.3 0.0
05-06-2020 08:05 5 78 12.3 992.2 2.5 3.6 SW 992.8 8.6 12.3 0.0
05-06-2020 08:10 5 78 12.2 992.3 3.6 7.2 SW 992.9 8.5 12.2 0.0
05-06-2020 08:15 5 78 12.2 992.3 6.1 9.7 N 992.9 8.5 12.2 0.0
05-06-2020 08:20 5 78 12.3 992.3 5.0 8.6 E 992.9 8.6 12.3 0.0
05-06-2020 08:25 5 75 13.0 992.4 5.0 9.7 SE 993.0 8.7 13.0 0.0
05-06-2020 08:30 5 72 13.0 992.5 8.6 11.2 W 993.1 8.1 11.3 0.0
05-06-2020 08:35 5 72 12.8 992.5 5.0 9.7 W 993.1 7.9 12.8 0.0
05-06-2020 08:40 5 73 13.3 992.5 3.6 5.0 W 993.1 8.6 13.3 0.0
05-06-2020 08:45 5 71 14.2 992.5 6.1 8.6 NWW 993.1 9.0 14.2 0.0
05-06-2020 08:50 5 70 14.2 992.5 5.0 6.1 W 993.1 8.8 14.2 0.0
05-06-2020 08:55 5 68 14.7 992.5 7.2 11.2 W 993.1 8.9 13.8 0.0
05-06-2020 09:00 5 67 14.4 992.5 7.2 12.2 SWW 993.1 8.4 13.5 0.0
05-06-2020 09:05 5 69 13.7 992.7 2.5 3.6 NW 993.3 8.1 13.7 0.0
05-06-2020 09:10 5 70 13.5 992.6 7.2 12.2 S 993.2 8.2 12.5 0.0
05-06-2020 09:15 5 70 13.8 992.6 5.0 8.6 SW 993.2 8.4 13.8 0.0
05-06-2020 09:20 5 70 14.1 992.7 6.1 9.7 N 993.3 8.7 14.1 0.0
05-06-2020 09:25 5 68 14.8 992.8 9.7 17.3 SWW 993.4 9.0 12.8 0.0
05-06-2020 09:30 5 65 15.5 992.8 14.8 19.4 W 993.4 9.0 11.9 0.0
05-06-2020 09:35 5 63 14.8 992.8 8.6 12.2 NW 993.4 7.8 13.2 0.0
05-06-2020 09:40 5 65 15.0 992.9 11.2 17.3 SW 993.5 8.5 12.4 0.0
05-06-2020 09:45 5 61 15.3 992.9 8.6 12.2 N 993.5 7.8 13.8 0.0
05-06-2020 09:50 5 62 15.0 993.0 6.1 8.6 NWW 993.6 7.8 15.0 0.0
05-06-2020 09:55 5 63 15.6 993.0 9.7 12.2 NW 993.6 8.6 13.6 0.0
05-06-2020 10:00 5 61 15.7 993.2 6.1 8.6 W 993.8 8.2 15.7 0.0
05-06-2020 10:05 5 61 15.7 993.2 6.1 8.6 W 993.8 8.2 15.7 0.0
05-06-2020 10:10 5 64 14.6 993.2 5.0 7.2 NWW 993.8 7.9 14.6 0.0
05-06-2020 10:15 5 62 14.6 993.3 7.2 12.2 S 993.9 7.4 13.7 0.0
05-06-2020 10:20 5 63 14.8 993.3 5.0 7.2 SW 993.9 7.8 14.8 0.0
05-06-2020 10:25 5 62 14.5 993.2 7.2 11.2 NNW 993.8 7.3 13.6 0.0
05-06-2020 10:30 5 63 14.4 993.2 1.1 2.5 W 993.8 7.5 14.4 0.0
05-06-2020 10:35 5 63 15.3 993.3 5.0 8.6 NW 993.9 8.3 15.3 0.0
05-06-2020 10:40 5 60 15.9 993.3 5.0 8.6 SW 993.9 8.2 15.9 0.0
05-06-2020 10:45 5 60 15.3 993.3 2.5 3.6 W 993.9 7.6 15.3 0.0
05-06-2020 10:50 5 60 15.7 993.4 9.7 13.3 S 994.0 8.0 13.8 0.0
05-06-2020 10:55 5 57 16.0 993.3 11.2 15.8 SW 993.9 7.5 13.6 0.0
05-06-2020 11:00 5 56 15.8 993.3 5.0 7.2 S 993.9 7.1 15.8 0.0
05-06-2020 11:05 5 56 16.6 993.2 9.7 13.3 W 993.8 7.8 14.8 0.0
05-06-2020 11:10 5 60 17.0 993.2 2.5 6.1 SW 993.8 9.2 17.0 0.0
05-06-2020 11:15 5 53 16.1 993.2 14.8 17.3 SW 993.8 6.5 12.6 0.0
05-06-2020 11:20 5 56 15.1 993.4 12.2 14.8 NWW 994.0 6.4 12.2 0.0
05-06-2020 11:25 5 60 14.7 993.2 12.2 22.0 S 993.8 7.0 11.7 0.0
05-06-2020 11:30 5 59 14.6 993.4 8.6 11.2 NW 994.0 6.7 13.0 0.0
05-06-2020 11:35 5 58 14.6 993.4 6.1 12.2 NW 994.0 6.4 14.6 0.0
05-06-2020 11:40 5 60 14.4 993.4 5.0 7.2 SW 994.0 6.8 14.4 0.0
05-06-2020 11:45 5 60 15.1 993.4 3.6 6.1 NE 994.0 7.4 15.1 0.0
05-06-2020 11:50 5 60 16.5 993.4 3.6 7.2 W 994.0 8.7 16.5 0.0
05-06-2020 11:55 5 56 16.3 993.2 17.3 23.4 SW 993.8 7.5 12.2 0.0
05-06-2020 12:00 5 61 16.3 993.3 5.0 7.2 SW 993.9 8.8 16.3 0.0
05-06-2020 12:05 5 61 16.3 993.3 5.0 7.2 SW 993.9 8.8 16.3 0.0
05-06-2020 12:10 5 53 16.1 993.3 7.2 12.2 NW 993.9 6.5 15.3 0.0
05-06-2020 12:15 5 55 16.0 993.2 9.7 14.8 W 993.8 7.0 14.1 0.0
05-06-2020 12:20 5 55 15.9 993.2 12.2 15.8 S 993.8 6.9 13.1 0.0
05-06-2020 12:25 5 57 15.7 993.2 13.3 18.4 SW 993.8 7.2 12.5 0.0
05-06-2020 12:30 5 57 16.0 993.1 9.7 13.3 S 993.7 7.5 14.1 0.0
05-06-2020 12:35 5 55 16.3 993.2 11.2 15.8 NW 993.8 7.3 13.9 0.0
05-06-2020 12:42 5 55 16.9 993.1 3.6 7.2 W 993.7 7.8 16.9 0.0
05-06-2020 12:47 5 51 17.0 993.2 13.3 15.8 W 993.8 6.8 14.1 0.0
05-06-2020 12:52 5 52 16.6 993.0 12.2 15.8 S 993.6 6.7 13.9 0.0
05-06-2020 12:57 5 53 16.0 993.0 11.2 13.3 SW 993.6 6.4 13.6 0.0
05-06-2020 13:02 5 54 16.1 993.0 11.2 14.8 SW 993.6 6.8 13.7 0.0
05-06-2020 13:07 5 55 16.9 993.1 14.8 20.9 SW 993.7 7.8 13.5 0.0
05-06-2020 13:12 5 51 17.1 993.0 9.7 13.3 W 993.6 6.9 15.3 0.0
05-06-2020 13:17 5 48 17.5 992.9 6.1 9.7 W 993.5 6.4 17.5 0.0
05-06-2020 13:22 5 52 16.9 993.1 3.6 6.1 NW 993.7 7.0 16.9 0.0
05-06-2020 13:27 5 51 16.0 993.2 9.7 13.3 SW 993.8 5.9 14.1 0.0
05-06-2020 13:32 5 53 15.6 993.1 11.2 13.3 SW 993.7 6.1 13.1 0.0
05-06-2020 13:37 5 57 15.6 993.2 6.1 9.7 W 993.8 7.1 15.6 0.0
05-06-2020 13:42 5 56 15.8 993.1 3.6 6.1 NW 993.7 7.1 15.8 0.0
05-06-2020 13:47 5 55 15.8 993.0 12.2 17.3 S 993.6 6.8 13.0 0.0
05-06-2020 13:52 5 55 16.6 993.1 11.2 15.8 SW 993.7 7.5 14.2 0.0
05-06-2020 13:57 5 54 16.6 993.1 9.7 12.2 W 993.7 7.3 14.8 0.0
05-06-2020 14:02 5 52 17.1 993.1 9.7 17.3 W 993.7 7.2 15.3 0.0
05-06-2020 14:07 5 52 17.1 993.1 9.7 17.3 W 993.7 7.2 15.3 0.0
05-06-2020 14:12 5 45 18.7 993.2 8.6 13.3 W 993.8 6.5 17.5 0.0
05-06-2020 14:17 5 43 17.9 993.2 8.6 13.3 W 993.8 5.2 16.6 0.0
05-06-2020 14:22 5 49 17.0 993.2 12.2 17.3 SW 993.8 6.2 14.4 0.0
05-06-2020 14:27 5 48 17.6 993.1 7.2 11.2 W 993.7 6.5 16.8 0.0
05-06-2020 14:32 5 47 17.5 993.2 13.3 18.4 W 993.8 6.1 14.6 0.0
05-06-2020 14:37 5 51 17.4 993.2 12.2 15.8 S 993.8 7.2 14.8 0.0
05-06-2020 14:42 5 45 17.9 993.1 11.2 13.3 SW 993.7 5.8 15.7 0.0
05-06-2020 14:47 5 44 17.7 993.1 12.2 15.8 SW 993.7 5.3 15.2 0.0
05-06-2020 14:52 5 44 17.5 993.0 12.2 14.8 S 993.6 5.1 14.9 0.0
05-06-2020 14:57 5 45 17.8 993.1 8.6 12.2 S 993.7 5.7 16.5 0.0
05-06-2020 15:02 5 45 17.7 993.0 7.2 11.2 S 993.6 5.6 17.0 0.0
05-06-2020 15:07 5 43 18.3 992.9 11.2 15.8 SE 993.5 5.5 16.2 0.0
05-06-2020 15:12 5 44 19.1 992.8 8.6 13.3 S 993.4 6.6 17.9 0.0
05-06-2020 15:17 5 41 19.0 992.8 8.6 9.7 NW 993.4 5.5 17.8 0.0
05-06-2020 15:22 5 41 17.7 992.8 14.8 19.4 S 993.4 4.3 14.5 0.0
05-06-2020 15:27 5 46 17.0 992.8 8.6 13.3 SW 993.4 5.3 15.6 0.0
05-06-2020 15:32 5 43 17.8 992.7 12.2 15.8 SE 993.3 5.1 15.3 0.0
05-06-2020 15:37 5 45 18.7 992.8 8.6 13.3 S 993.4 6.5 17.5 0.0
05-06-2020 15:42 5 43 18.4 992.9 9.7 13.3 SSW 993.5 5.6 16.8 0.0
05-06-2020 15:47 5 42 18.6 992.9 14.8 20.9 S 993.5 5.5 15.6 0.0
05-06-2020 15:52 5 43 18.5 992.9 11.2 12.2 S 993.5 5.7 16.4 0.0
05-06-2020 15:57 5 40 18.3 992.9 11.2 14.8 S 993.5 4.5 16.2 0.0
05-06-2020 16:02 5 42 18.6 992.8 13.3 17.3 SSW 993.4 5.5 15.9 0.0
05-06-2020 16:07 5 42 18.6 992.8 13.3 17.3 SSW 993.4 5.5 15.9 0.0
05-06-2020 16:12 5 42 17.9 993.0 12.2 17.3 S 993.6 4.8 15.4 0.0
05-06-2020 16:17 5 47 17.0 992.9 5.0 7.2 SW 993.5 5.6 17.0 0.0
05-06-2020 16:22 5 49 16.6 992.8 9.7 12.2 SSE 993.4 5.9 14.8 0.0
05-06-2020 16:27 5 51 16.5 992.8 8.6 11.2 SSW 993.4 6.4 15.1 0.0
05-06-2020 16:32 5 50 17.4 992.7 3.6 6.1 S 993.3 6.9 17.4 0.0
05-06-2020 16:37 5 44 17.9 992.7 15.8 20.9 S 993.3 5.5 14.5 0.0
05-06-2020 16:42 5 40 18.6 992.7 13.3 19.4 SW 993.3 4.8 15.9 0.0
05-06-2020 16:47 5 40 18.7 992.6 8.6 13.3 W 993.2 4.8 17.5 0.0
05-06-2020 16:52 5 41 18.9 992.6 15.8 18.4 S 993.2 5.4 15.7 0.0
05-06-2020 16:57 5 41 18.4 992.5 8.6 12.2 SSE 993.1 4.9 17.1 0.0
05-06-2020 17:02 5 42 17.9 992.5 11.2 13.3 SW 993.1 4.8 15.7 0.0
05-06-2020 17:07 5 41 18.3 992.3 8.6 12.2 S 992.9 4.8 17.0 0.0
05-06-2020 17:12 5 40 18.4 992.4 6.1 9.7 SW 993.0 4.6 18.4 0.0
05-06-2020 17:17 5 40 18.5 992.4 14.8 17.3 S 993.0 4.7 15.5 0.0
05-06-2020 17:22 5 40 18.6 992.3 9.7 13.3 SW 992.9 4.8 17.0 0.0
05-06-2020 17:27 5 40 18.8 992.2 8.6 12.2 SE 992.8 4.9 17.6 0.0
05-06-2020 17:32 5 36 18.6 992.1 11.2 13.3 SW 992.7 3.3 16.5 0.0
05-06-2020 17:37 5 37 18.7 992.1 14.8 17.3 SW 992.7 3.7 15.7 0.0
05-06-2020 17:42 5 38 18.6 992.0 11.2 12.2 SW 992.6 4.0 16.5 0.0
05-06-2020 17:47 5 37 18.7 992.0 17.3 20.9 SSW 992.6 3.7 15.2 0.0
05-06-2020 17:52 5 38 18.8 991.8 11.2 13.3 W 992.4 4.2 16.8 0.0
05-06-2020 17:57 5 36 18.8 991.8 11.2 18.4 S 992.4 3.4 16.8 0.0
05-06-2020 18:02 5 36 18.6 991.8 11.2 13.3 E 992.4 3.3 16.5 0.0
05-06-2020 18:07 5 36 18.6 991.8 11.2 13.3 E 992.4 3.3 16.5 0.0
05-06-2020 18:12 5 35 18.5 992.0 14.8 19.4 S 992.6 2.8 15.5 0.0
05-06-2020 18:17 5 37 18.8 991.8 6.1 11.2 E 992.4 3.8 18.8 0.0
05-06-2020 18:22 5 36 18.7 991.8 11.2 17.3 S 992.4 3.3 16.6 0.0
05-06-2020 18:27 5 39 18.8 991.6 13.3 19.4 SE 992.2 4.6 16.2 0.0
05-06-2020 18:32 5 40 18.8 991.7 14.8 20.9 SE 992.3 4.9 15.8 0.0
05-06-2020 18:37 5 40 17.7 991.5 8.6 12.2 S 992.1 4.0 16.4 0.0
05-06-2020 18:42 5 45 17.3 991.6 9.7 15.8 S 992.2 5.3 15.5 0.0
05-06-2020 18:47 5 47 17.2 991.5 7.2 11.2 SW 992.1 5.8 16.4 0.0
05-06-2020 18:52 5 42 18.1 991.4 8.6 11.2 SW 992.0 5.0 16.8 0.0
05-06-2020 18:57 5 41 18.5 991.2 7.2 12.2 S 991.8 5.0 17.8 0.0
05-06-2020 19:02 5 40 18.4 991.1 6.1 9.7 SSE 991.7 4.6 18.4 0.0
05-06-2020 19:07 5 41 18.4 991.2 12.2 14.8 SE 991.8 4.9 16.0 0.0
05-06-2020 19:12 5 40 18.1 991.2 9.7 13.3 SE 991.8 4.3 16.4 0.0
05-06-2020 19:17 5 41 18.1 991.0 8.6 14.8 SE 991.6 4.7 16.8 0.0
05-06-2020 19:22 5 41 17.7 991.0 8.6 11.2 E 991.6 4.3 16.4 0.0
05-06-2020 19:27 5 41 17.8 991.1 6.1 9.7 S 991.7 4.4 17.8 0.0
05-06-2020 19:32 5 41 17.7 990.9 7.2 11.2 S 991.5 4.3 17.0 0.0
05-06-2020 19:37 5 45 17.4 990.7 7.2 9.7 SE 991.3 5.4 16.6 0.0
05-06-2020 19:42 5 46 17.0 990.7 5.0 7.2 SE 991.3 5.3 17.0 0.0
05-06-2020 19:47 5 48 16.9 990.6 5.0 8.6 E 991.2 5.8 16.9 0.0
05-06-2020 19:52 5 49 16.8 990.5 5.0 6.1 E 991.1 6.0 16.8 0.0
05-06-2020 19:57 5 50 16.7 990.4 5.0 7.2 NE 991.0 6.2 16.7 0.0
05-06-2020 20:02 5 50 16.7 990.5 5.0 7.2 NW 991.1 6.2 16.7 0.0
05-06-2020 20:07 5 50 16.7 990.5 5.0 7.2 NW 991.1 6.2 16.7 0.0
05-06-2020 20:12 5 50 16.7 990.4 5.0 6.1 NE 991.0 6.2 16.7 0.0
05-06-2020 20:17 5 51 16.5 990.3 2.5 7.2 S 990.9 6.4 16.5 0.0
05-06-2020 20:22 5 52 16.3 990.3 2.5 5.0 SSE 990.9 6.4 16.3 0.0
05-06-2020 20:27 5 52 16.1 990.3 6.1 8.6 S 990.9 6.3 16.1 0.0
05-06-2020 20:32 5 52 16.0 990.3 8.6 11.2 SE 990.9 6.2 14.5 0.0
05-06-2020 20:37 5 51 15.9 990.3 3.6 6.1 E 990.9 5.8 15.9 0.0
05-06-2020 20:42 5 52 15.8 990.3 3.6 6.1 SE 990.9 6.0 15.8 0.0
05-06-2020 20:47 5 53 15.7 990.1 3.6 6.1 S 990.7 6.2 15.7 0.0
05-06-2020 20:52 5 53 15.6 990.1 6.1 9.7 SW 990.7 6.1 15.6 0.0
05-06-2020 20:57 5 52 15.6 990.1 6.1 11.2 S 990.7 5.8 15.6 0.0
05-06-2020 21:02 5 53 15.4 990.2 2.5 3.6 SE 990.8 5.9 15.4 0.0
05-06-2020 21:07 5 54 15.3 990.1 6.1 7.2 SE 990.7 6.1 15.3 0.0
05-06-2020 21:12 5 54 15.3 990.0 7.2 9.7 S 990.6 6.1 14.4 0.0
05-06-2020 21:17 5 54 15.2 990.0 7.2 11.2 SE 990.6 6.0 14.3 0.0
05-06-2020 21:22 5 54 15.2 990.0 5.0 8.6 SE 990.6 6.0 15.2 0.0
05-06-2020 21:27 5 54 15.2 990.0 3.6 6.1 E 990.6 6.0 15.2 0.0
05-06-2020 21:32 5 54 15.1 989.9 8.6 12.2 SE 990.5 5.9 13.5 0.0
05-06-2020 21:37 5 55 15.1 990.0 5.0 8.6 SE 990.6 6.1 15.1 0.0
05-06-2020 21:42 5 57 14.9 989.8 2.5 3.6 SE 990.4 6.5 14.9 0.0
05-06-2020 21:47 5 57 14.8 990.0 6.1 11.2 SE 990.6 6.4 14.8 0.0
05-06-2020 21:52 5 62 14.2 990.2 27.0 39.2 S 990.8 7.0 7.6 0.0
05-06-2020 21:57 5 70 13.2 990.5 18.4 20.9 SW 991.1 7.9 8.0 0.0
05-06-2020 22:02 5 76 12.4 990.7 12.2 15.8 SW 991.3 8.3 9.0 0.0
05-06-2020 22:07 5 76 12.4 990.4 12.2 15.8 SW 991.0 8.3 9.0 0.0
05-06-2020 22:12 5 82 11.5 990.6 17.3 23.4 S 991.2 8.5 6.2 0.3
05-06-2020 22:17 5 84 11.3 990.4 11.2 17.3 S 991.0 8.7 8.2 0.6
05-06-2020 22:22 5 85 11.3 990.5 9.7 12.2 S 991.1 8.9 8.9 0.9
05-06-2020 22:27 5 86 11.3 990.4 6.1 8.6 SSW 991.0 9.1 11.3 0.9
05-06-2020 22:32 5 86 11.3 990.5 12.2 17.3 SE 991.1 9.1 7.7 1.2
05-06-2020 22:37 5 87 11.2 990.4 8.6 12.2 S 991.0 9.1 9.3 1.2
05-06-2020 22:42 5 88 11.1 990.5 9.7 13.3 SW 991.1 9.2 8.6 1.5
05-06-2020 22:47 5 89 11.1 990.3 11.2 14.8 SE 990.9 9.4 8.0 1.5
05-06-2020 22:52 5 90 11.1 990.3 3.6 7.2 SE 990.9 9.5 11.1 1.8
05-06-2020 22:57 5 90 11.1 990.2 3.6 9.7 SW 990.8 9.5 11.1 1.8
05-06-2020 23:02 5 91 11.1 990.2 7.2 12.2 S 990.8 9.7 10.0 2.1
05-06-2020 23:07 5 91 11.1 990.0 2.5 3.6 E 990.6 9.7 11.1 2.1
05-06-2020 23:12 5 91 11.1 990.1 3.6 5.0 SW 990.7 9.7 11.1 2.1
05-06-2020 23:17 5 91 11.1 990.0 6.1 8.6 SW 990.6 9.7 11.1 1.8
05-06-2020 23:22 5 92 11.1 990.2 11.2 18.4 S 990.8 9.9 8.0 1.8
05-06-2020 23:27 5 91 11.1 990.5 3.6 6.1 SW 991.1 9.7 11.1 2.1
05-06-2020 23:32 5 91 10.9 990.4 5.0 7.2 SWW 991.0 9.5 10.9 1.8
05-06-2020 23:37 5 90 10.6 990.5 7.2 13.3 SW 991.1 9.0 9.5 1.8
05-06-2020 23:42 5 88 10.4 990.5 5.0 7.2 SSW 991.1 8.5 10.4 1.5
05-06-2020 23:47 5 86 10.4 990.4 1.1 6.1 SW 991.0 8.2 10.4 1.5
05-06-2020 23:52 5 85 10.3 990.5 5.0 7.2 W 991.1 7.9 10.3 1.2
05-06-2020 23:57 5 84 10.3 990.5 12.2 15.8 SW 991.1 7.7 6.6 1.2

 

Tagesdaten                                                                  Tabelle: 08 : 00 UHR

STATIONHÖHELUFTD.TEMP.T-MinT-MaxU%RR1RR12SSSDDFFFXWetter+WolkenBöen
UFS TW Ems 0 992.3 10.7 9.5 11.7 71 ---- --- --- W 25 --- --- ---
UFS Deutsche Bucht 0 992.5 9.9 9.0 12.6 74 ---- --- --- W 32 --- --- ---
Helgoland 4 992.4 11.2 10.1 12.3 72 0.0 0 --- -- --- 32 Regen ---
List/Sylt 26 990.9 9.7 9.2 11.5 73 0.0 1 0 W 31 56 leichter Regen Windböen
Schleswig 43 992.1 8.8 8.8 13.3 89 1.3 2 --- W 14 32 leichter Regen ---
Leuchtturm Kiel 5 992.1 11.2 10.4 14.7 72 ---- --- --- SW 31 40 --- ---
Kiel 27 992.5 10.6 10.0 14.6 80 0.0 1 --- SW 18 27 --- ---
Fehmarn 3 991.9 12.1 11.4 14.1 77 0.0 16 --- W 32 41 --- ---
Arkona 42 992.0 11.5 11.1 15.0 91 0.0 7 --- W 26 34 --- ---
Norderney 11 993.1 10.0 9.4 12.5 82 0.1 0 --- SW 23 36 leichter Regen ---
Leuchtt. Alte Weser 32 992.8 10.2 9.4 12.4 71 ---- --- --- SW 36 --- --- ---
Cuxhaven 5 993.3 10.7 9.1 12.7 79 0.0 1 --- SW 22 37 Regen ---
Hamburg-Flh. 11 994.1 10.7 9.5 13.8 77 0.0 1 0 W 20 29 heiter ---
Schwerin 59 994.0 10.6 9.7 14.9 86 0.0 7 --- SW 18 28 --- ---
Rostock 4 992.9 11.8 11.7 14.9 78 0.0 9 --- SW 13 33 --- ---
Greifswald 2 993.0 12.3 11.9 17.7 83 0.0 4 0 W 16 25 leichter Regen ---
Emden 0 993.8 10.2 8.3 12.6 81 0.0 1 --- SW 9 21 --- ---
Bremen-Flh. 5 995.0 10.3 8.7 12.3 80 0.0 2 0 SW 18 30 heiter ---
Lüchow 17 995.2 11.0 10.2 14.6 86 0.0 1 --- W 14 24 Regen ---
Marnitz 81 994.5 10.3 9.8 15.4 88 0.2 6 --- W 9 23 Regen ---
Waren 70 993.8 10.4 10.2 15.0 89 0.1 9 --- W 11 28 leichter Regen ---
Neuruppin 38 994.7 10.4 10.3 16.8 93 0.5 8 --- W 11 29 --- ---
Angermünde 56 ------ --- --- --- --- ---- --- --- -- --- --- --- ---
Münster/Osnabr.-Flh. 48 996.5 10.0 8.1 12.7 80 0.0 6 0 SW 13 23 heiter ---
Hannover-Flh. 59 996.2 9.8 9.0 13.6 89 0.0 2 0 SW 15 28 Regen ---
Magdeburg 76 996.3 10.7 10.1 15.1 87 0.4 1 --- W 10 19 Regen ---
Potsdam 81 995.0 11.4 11.4 16.4 95 0.1 13 0 W 15 25 leichter Regen ---
Berlin-Tegel 37 994.8 12.0 12.0 18.3 93 0.1 14 0 W 13 26 leichter Regen ---
Berlin-Tempelhof 48 994.8 12.4 12.4 17.5 91 0.1 3 --- W 15 28 --- ---
Berlin-Dahlem 51 994.9 11.9 11.8 17.2 --- ---- 6 0 NW 14 --- Regen ---
Lindenberg 91 994.5 12.2 12.1 18.5 96 0.9 1 --- W 14 35 Regen ---
Düsseldorf-Flh. 45 997.4 10.3 6.3 12.5 82 0.0 1 0 S 17 23 stark bewölkt ---
Essen 150 997.4 9.2 6.9 11.6 92 0.0 4 --- S 10 20 --- ---
Kahler Asten 839 ------ 3.4 3.1 7.2 96 0.0 2 --- W 23 42 Nebel ---
Bad Lippspringe 157 997.4 8.9 8.5 12.7 89 0.0 7 --- SW 13 31 --- ---
Fritzlar 174 998.1 10.4 8.9 14.4 75 ---- 2 0 W 7 --- stark bewölkt ---
Brocken 1142 ------ 2.0 2.0 7.8 100 ---- --- --- W 39 54 Nebel Windböen
Leipzig-Flh. 142 996.9 9.5 9.5 17.2 85 0.0 1 0 NW 12 30 bedeckt ---
Dresden-Flh. 227 996.3 11.3 11.1 16.2 94 0.6 4 0 W 10 26 Regen ---
Cottbus 69 994.8 12.7 12.7 19.0 90 1.5 2 --- W 11 30 Regen ---
Görlitz 238 994.9 14.5 13.8 17.4 89 0.0 2 --- SW 10 15 --- ---
Aachen 231 997.4 9.2 7.9 11.5 88 0.0 0 --- S 18 33 Regen ---
Nürburg 485 999.0 7.2 6.2 9.8 88 0.0 0 --- SW 9 16 Regen ---
Köln/Bonn-Flh. 92 998.4 10.2 7.7 12.1 84 0.0 4 0 S 8 17 stark bewölkt ---
Gießen/Wettenberg 203 999.1 9.8 8.6 14.0 80 0.0 1 --- SW 17 24 --- ---
Wasserkuppe 921 ------ 3.8 3.8 9.3 100 1.2 6 --- W 20 41 Regen ---
Meiningen 450 998.7 7.7 7.5 13.0 96 2.0 7 --- NW 10 28 leichter Regen ---
Erfurt 316 997.6 9.3 8.8 14.6 84 0.0 2 0 W 19 28 Regenschauer ---
Gera 311 996.9 11.6 10.5 15.3 86 0.0 1 --- W 15 27 --- ---
Fichtelberg 1213 ------ 5.2 5.1 9.3 98 ---- --- --- W 32 43 Nebel ---
Trier 265 1000.0 9.9 8.1 12.7 81 0.0 0 --- S 15 24 --- ---
Hahn-Flh. 497 999.9 7.2 6.3 10.2 92 0.0 0 --- SW 10 19 --- ---
Frankfurt/M-Flh. 112 999.9 11.2 10.2 14.0 79 0.0 0 0 SW 12 17 bewölkt ---
OF-Wetterpark 119 999.9 11.2 10.4 15.6 74 0.0 5 --- W 10 20 --- ---
Würzburg 268 999.9 10.9 9.6 15.3 77 0.1 0 --- NW 22 34 --- ---
Bamberg 239 999.3 11.6 10.5 15.7 82 0.0 2 --- SW 8 20 --- ---
Hof 567 997.6 10.0 9.3 14.4 80 0.0 1 --- W 15 27 --- ---
Weiden 438 998.7 11.1 10.6 14.0 82 0.0 0 --- W 11 24 Regen ---
Saarbrücken-Flh. 320 1001.0 9.6 8.5 13.2 88 0.0 0 0 W 13 18 stark bewölkt ---
Karlsruhe-Rheinst. 116 1000.8 11.7 11.4 15.8 87 0.0 5 --- W 10 17 Regen ---
Mannheim 96 1000.4 12.5 11.8 16.0 66 0.0 10 --- NW 14 24 --- ---
Stuttgart-Flh. 371 1000.8 11.1 10.5 15.0 84 0.0 2 --- SW 5 14 stark bewölkt ---
Öhringen 276 1000.1 11.1 10.4 13.3 86 0.0 3 --- W 18 30 --- ---
Nürnberg-Flh. 314 999.8 11.3 10.7 14.3 80 0.0 0 0 W 14 23 stark bewölkt ---
Regensburg 366 999.3 11.3 11.2 15.1 93 0.2 6 --- W 13 22 Regen ---
Straubing 351 998.8 12.5 12.1 15.1 89 0.0 3 --- W 12 26 leichter Regen ---
Großer Arber 1436 ------ 5.3 5.2 8.3 100 1.7 12 --- W 30 44 Nebel ---
Lahr 155 1001.4 11.9 11.6 16.8 90 0.2 6 --- SW 6 10 leichter Regen ---
Freudenstadt 797 ------ 7.9 6.9 10.9 92 0.0 4 --- W 22 34 leichter Regen ---
Stötten 734 1000.7 7.9 7.1 12.4 100 0.2 5 --- W 21 37 Regen ---
Augsburg 462 1000.3 11.5 11.0 14.3 85 0.0 1 --- W 14 22 --- ---
München-Flh. 444 1000.0 11.8 11.2 14.8 93 0.1 1 0 W 14 21 Regen ---
Fürstenzell 476 ------ --- --- --- --- ---- --- --- -- --- --- --- ---
Feldberg/Schw. 1486 ------ 3.5 3.5 6.1 99 0.0 9 0 W 37 51 Nebel Windböen
Konstanz 443 1001.2 12.1 11.1 13.3 86 0.0 5 --- W 14 25 Regen ---
Kempten 705 1001.1 9.6 9.4 11.9 96 1.7 3 --- S 5 13 leichter Regen ---
Oberstdorf 806 ------ 8.9 8.4 11.4 94 1.2 11 --- S 4 14 leichter Regen ---
Zugspitze 2960 ------ -3.8 -4.0 -0.6 96 ---- --- 210 NW 22 38 gefrierender Nebel ---
Hohenpeißenberg 977 ------ 7.6 7.3 10.0 100 0.2 5 --- SW 19 32 Nebel ---

                                                                                                    Tabelle: 20 : 00 UHR

STATIONHÖHELUFTD.TEMP.T-MinT-MaxU%RR1RR12SSSDDFFFXWetter+WolkenBöen
UFS TW Ems 0 989.6 9.4 8.3 11.3 79 ---- --- --- NW 29 --- --- ---
UFS Deutsche Bucht 26 987.7 9.5 8.6 12.4 89 ---- --- --- W 36 --- --- ---
Helgoland 4 987.5 11.0 8.6 13.9 78 0.1 8 --- SW 21 31 Regen ---
List/Sylt 26 987.6 10.6 9.7 14.5 89 2.6 4 0 S 22 44 Regen ---
Schleswig 43 989.1 10.1 8.8 16.4 93 2.7 4 --- S 15 45 leichter Regen ---
Leuchtturm Kiel 5 989.0 15.3 10.3 15.4 50 ---- --- --- S 44 53 --- Windböen
Kiel 27 989.6 10.6 9.7 16.9 86 0.3 1 --- SW 25 56 leichter Regen Windböen
Fehmarn 3 990.1 13.5 11.0 16.2 71 0.0 0 --- SO 20 35 --- ---
Arkona 42 993.1 13.1 11.1 15.1 81 0.0 0 --- O 17 28 --- ---
Norderney 11 989.2 10.5 8.9 13.3 78 0.0 9 --- NW 46 62 Regen Windböen
Leuchtt. Alte Weser 32 988.0 10.6 9.4 14.2 80 ---- --- --- SW 32 --- --- ---
Cuxhaven 5 988.6 11.2 8.7 16.3 89 0.0 6 --- S 10 27 Regen ---
Hamburg-Flh 11 990.1 10.7 10.1 18.0 85 1.4 3 0 S 15 37 Regenschauer ---
Schwerin 59 990.5 15.5 10.6 17.4 51 0.0 0 --- S 14 37 --- ---
Rostock 4 991.3 16.6 11.3 18.2 42 0.0 0 --- S 16 30 --- ---
Greifswald 2 992.9 16.8 12.3 18.1 46 0.0 0 0 S 12 29 heiter ---
Emden 0 990.2 9.8 8.8 13.9 83 0.1 12 --- W 22 44 Regen ---
Bremen-Flh. 5 990.0 10.5 10.2 16.2 82 0.0 1 0 SW 23 38 Regenschauer ---
Lüchow 17 991.8 12.0 10.6 17.0 86 0.1 1 --- SW 28 59 leichter Regen Windböen
Marnitz 81 991.5 14.7 10.2 17.7 55 0.0 0 --- S 10 30 Regen ---
Waren 70 992.1 16.1 10.4 16.8 49 0.0 0 --- S 15 36 --- ---
Neuruppin 38 993.3 14.6 10.4 18.1 63 0.1 0 --- S 7 28 --- ---
Angermünde 56 ------ --- --- --- --- ---- --- --- -- --- --- --- ---
Münster/Osnabr.-Flh. 48 993.5 9.6 8.8 14.3 88 0.5 9 0 W 22 36 Regenschauer ---
Hannover-Flh. 59 991.7 10.2 8.8 17.0 87 0.3 2 0 SW 18 26 Regenschauer ---
Magdeburg 76 993.4 12.4 10.7 18.5 84 0.5 1 --- S 18 44 leichter Regen ---
Potsdam 81 994.1 13.4 9.9 18.3 72 0.0 1 --- S 13 43 Regen ---
Berlin-Tegel 37 994.1 15.3 11.0 18.4 52 0.0 0 0 SW 19 53 Regenschauer Windböen
Berlin-Tempelhof 48 994.3 16.0 11.2 18.6 50 0.0 0 --- SW 13 30 --- ---
Berlin-Dahlem 51 994.2 14.7 10.4 18.3 --- ---- 0 0 SW 11 --- stark bewölkt ---
Lindenberg 91 995.3 16.0 11.2 17.6 48 0.0 0 --- SW 15 36 leichter Regen ---
Düsseldorf-Flh. 45 995.9 11.5 8.4 13.2 74 0.0 16 0 W 18 39 bewölkt ---
Essen 150 995.6 10.4 7.8 11.9 76 0.0 16 --- W 14 37 --- ---
Kahler Asten 839 ------ 4.5 3.3 6.3 96 2.9 13 --- W 31 67 Regen Sturmböen
Bad Lippspringe 157 993.3 10.3 8.0 13.9 79 0.0 4 --- SW 21 39 Regen ---
Fritzlar 174 995.6 10.4 9.9 15.0 84 ---- 5 0 SW 11 --- Regenschauer ---
Brocken 1142 ------ 2.2 1.2 5.9 100 ---- --- --- SW 71 95 leichter Regen schwere Sturmböen
Leipzig-Flh. 142 995.0 14.1 9.5 18.3 65 0.0 0 0 S 26 46 Regenschauer ---
Dresden-Flh. 227 996.8 15.1 11.4 17.4 52 0.0 0 0 S 30 48 heiter ---
Cottbus 69 995.6 17.0 12.6 18.5 51 0.0 0 --- S 13 28 --- ---
Görlitz 238 997.7 14.6 11.8 17.9 63 0.0 4 --- SW 23 39 leichter Regen ---
Aachen 231 997.2 10.0 8.9 12.8 76 0.0 6 --- W 22 36 Regen ---
Nürburg 485 997.8 8.2 7.2 11.4 80 0.0 5 --- W 15 35 Regen ---
Köln/Bonn-Flh. 92 997.0 11.0 9.4 13.7 72 0.0 12 0 W 17 52 stark bewölkt Windböen
Gießen/Wettenberg 203 996.7 10.8 9.7 13.9 83 0.0 7 --- SW 22 44 Regen ---
Wasserkuppe 921 ------ 5.5 3.4 10.9 100 2.3 5 --- SW 31 93 Nebel schwere Sturmböen
Meiningen 450 996.5 9.9 7.7 13.2 85 3.5 5 --- SW 19 37 Regen ---
Erfurt 316 995.0 10.6 8.9 15.3 92 0.6 1 0 SW 31 42 Regen ---
Gera 311 996.1 12.9 9.5 16.0 67 0.0 0 --- SW 30 53 Regen Windböen
Fichtelberg 1213 ------ 4.9 4.3 9.4 97 ---- --- --- SW 46 67 Nebel Sturmböen
Trier 265 998.6 10.6 9.9 13.4 85 0.4 3 --- SW 20 50 Regen ---
Hahn-Flh. 497 997.6 9.3 7.2 11.2 90 0.0 4 --- W 22 42 leichter Regen ---
Frankfurt/M-Flh. 112 997.2 12.4 11.1 16.3 89 0.3 3 0 SW 22 43 Regenschauer ---
OF-Wetterpark 119 997.1 12.4 11.2 16.9 92 0.0 3 --- SW 15 37 leichter Regen ---
Würzburg 268 998.3 12.0 10.9 15.5 88 0.5 1 --- W 36 58 leichter Regen Windböen
Bamberg 239 998.1 13.4 11.5 15.2 77 0.1 1 --- S 16 36 Regen ---
Hof 567 997.6 10.3 9.5 15.1 89 0.6 2 --- S 14 33 leichter Regen ---
Weiden 438 999.5 12.1 10.4 14.8 82 0.0 1 --- S 10 24 leichter Regen ---
Saarbrücken-Flh. 320 999.7 11.1 9.5 12.3 91 0.6 5 0 W 16 33 Regenschauer ---
Karlsruhe-Rheinst. 116 1000.3 12.8 10.5 16.1 92 2.3 7 --- SW 28 44 Regen ---
Mannheim 96 999.2 13.0 12.2 15.5 90 1.3 2 --- SW 19 41 leichter Regen ---
Stuttgart-Flh. 371 1000.0 14.9 11.1 15.5 61 0.0 0 --- S 21 56 stark bewölkt Windböen
Öhringen 276 999.0 13.8 10.7 14.7 74 0.0 2 --- SW 21 42 Regen ---
Nürnberg-Flh. 314 999.1 14.7 11.3 15.0 62 0.0 1 0 SW 29 51 Regenschauer Windböen
Regensburg 366 1000.3 14.7 11.2 17.9 68 0.0 1 --- SW 12 22 --- ---
Straubing 351 1000.9 15.3 12.0 18.2 63 0.0 0 --- SW 19 29 --- ---
Großer Arber 1436 ------ 5.0 4.0 6.8 100 0.0 2 --- SW 42 60 Nebel Windböen
Lahr 155 1001.4 15.0 11.7 15.9 72 0.0 1 --- SW 30 48 Niederschlag ---
Freudenstadt 797 ------ 9.4 7.3 9.6 88 0.0 3 --- SW 20 44 leichter Regen ---
Stötten 734 1000.1 11.9 7.6 12.4 70 0.0 1 --- SW 36 62 --- Windböen
Augsburg 462 1000.9 15.0 11.1 16.1 63 0.0 2 --- W 31 57 Regen Windböen
München-Flh. 444 1001.3 15.7 11.8 17.0 58 0.0 2 0 SW 28 49 stark bewölkt ---
Fürstenzell 476 ------ --- --- --- --- ---- --- --- -- --- --- --- ---
Feldberg/Schw. 1486 ------ 4.9 2.1 4.9 99 0.0 3 0 SW 66 100 leichter Schneefall schwere Sturmböen
Konstanz 443 1002.9 15.1 11.9 16.8 61 0.0 0 --- W 19 46 --- ---
Kempten 705 1002.5 13.5 9.4 15.4 69 0.0 3 --- SW 9 29 Regen ---
Oberstdorf 806 ------ 12.9 8.9 13.9 76 0.0 2 --- W 6 18 --- ---
Zugspitze 2960 ------ -1.4 -4.4 -0.9 99 ---- --- --- SW 43 64 gefrierender Nebel Windböen
Hohenpeißenberg 977 ------ 11.6 7.3 12.9 70 0.0 2 --- SW 33 67 --- Sturmböen

      

  • Wetterzustand
  • Windrichtung und -geschwindigkeit
  • Luftdruck
  • relative Luftfeuchtigkeit
  • Sichtweite
  • Gesamtbedeckungsgrad
  • Niederschlag
  • Sonnenscheindauer

 Höhe:     m über NN
Luftd.:   auf Meereshöhe reduzierter Luftdruck in hPa
TEMP.:   Lufttemperatur in Grad Celsius
T-MIN:   Minimumtemperatur der Luft in 2m Höhe in Grad Celsius, von 18 UTC Vortag bis 06 UTC heute
T-MAX:  Maximumtemperatur der Luft in 2m Höhe in Grad Celsius, von 18 UTC Vortag bis 06 UTC heute
RR1:     Niederschlagsmenge, einstündig, mm ist gleich Liter pro
RR12:   Niederschlagsmenge, 12 stündig, 18 UTC Vortag bis 06 UTC heute in mm ist gleich Liter pro
SSS:     Gesamtschneehöhe
DD:      Windrichtung
FF:       Windgeschwindigkeit letztes 10-Minutenmittel in km/h
FX:       höchste Windspitze während der letzten Stunde in km/h
---:      Wert nicht vorhanden

 

2009-2020

Unwetterwarnungen

 

  Radarbild           

aktueller Radarfilm Deutschland

  Europa-Meteoalarm    

 

Waldbrandindex

ausgewähltes Produkt zur Leistung: